createdAt,value
2019-06-07T00:00:54.220Z,67.50
2019-06-07T00:03:30.177Z,67.69
2019-06-07T00:06:01.106Z,67.92
2019-06-07T00:08:33.378Z,67.76
2019-06-07T00:11:07.763Z,67.53
2019-06-07T00:13:39.863Z,67.62
2019-06-07T00:16:14.944Z,66.98
2019-06-07T00:18:46.559Z,67.16
2019-06-07T00:21:20.388Z,67.30
2019-06-07T00:23:52.827Z,67.19
2019-06-07T00:26:26.845Z,67.52
2019-06-07T00:28:59.214Z,67.70
2019-06-07T00:31:31.485Z,68.00
2019-06-07T00:34:03.858Z,67.79
2019-06-07T00:36:36.428Z,67.07
2019-06-07T00:39:10.601Z,66.27
2019-06-07T00:41:43.531Z,66.06
2019-06-07T00:44:19.727Z,65.91
2019-06-07T00:46:49.912Z,65.89
2019-06-07T00:49:39.899Z,66.25
2019-06-07T00:51:56.295Z,66.59
2019-06-07T00:54:29.187Z,66.06
2019-06-07T00:57:01.753Z,66.41
2019-06-07T00:59:33.925Z,66.90
2019-06-07T01:02:07.437Z,67.02
2019-06-07T01:04:39.690Z,67.30
2019-06-07T01:07:13.230Z,67.14
2019-06-07T01:09:45.499Z,66.58
2019-06-07T01:12:21.264Z,65.93
2019-06-07T01:14:52.453Z,65.49
2019-06-07T01:17:41.314Z,65.96
2019-06-07T01:20:03.747Z,65.89
2019-06-07T01:22:36.021Z,66.16
2019-06-07T01:25:09.405Z,66.82
2019-06-07T01:27:41.682Z,66.78
2019-06-07T01:30:16.350Z,67.92
2019-06-07T01:32:48.596Z,68.05
2019-06-07T01:35:22.064Z,68.24
2019-06-07T01:37:54.958Z,68.59
2019-06-07T01:40:30.464Z,68.91
2019-06-07T01:43:01.552Z,69.00
2019-06-07T01:45:35.254Z,69.29
2019-06-07T01:48:07.832Z,69.19
2019-06-07T01:50:40.200Z,69.17
2019-06-07T01:53:12.971Z,68.93
2019-06-07T01:55:45.256Z,68.98
2019-06-07T01:58:17.522Z,68.33
2019-06-07T02:00:49.997Z,68.30
2019-06-07T02:03:28.092Z,68.10
2019-06-07T02:05:58.223Z,68.10
2019-06-07T02:08:34.183Z,67.14
2019-06-07T02:11:04.609Z,67.39
2019-06-07T02:13:36.665Z,67.66
2019-06-07T02:16:09.039Z,67.85
2019-06-07T02:19:00.672Z,68.21
2019-06-07T02:21:16.037Z,67.47
2019-06-07T02:23:48.763Z,67.55
2019-06-07T02:26:22.959Z,67.76
2019-06-07T02:28:55.301Z,67.90
2019-06-07T02:31:32.288Z,68.17
2019-06-07T02:34:01.892Z,67.43
2019-06-07T02:36:40.982Z,67.62
2019-06-07T02:39:08.582Z,67.66
2019-06-07T02:41:41.047Z,66.82
2019-06-07T02:44:13.424Z,65.58
2019-06-07T02:46:49.653Z,64.97
2019-06-07T02:49:19.915Z,64.79
2019-06-07T02:51:52.281Z,64.06
2019-06-07T02:54:27.418Z,63.40
2019-06-07T02:56:59.472Z,62.74
2019-06-07T02:59:54.868Z,62.73
2019-06-07T03:02:07.302Z,61.99
2019-06-07T03:04:44.557Z,61.28
2019-06-07T03:07:17.670Z,61.10
2019-06-07T03:09:51.172Z,59.22
2019-06-07T03:12:23.852Z,59.03
2019-06-07T03:14:56.684Z,56.67
2019-06-07T03:17:44.265Z,57.25
2019-06-07T03:20:21.609Z,56.80
2019-06-07T03:22:55.239Z,54.51
2019-06-07T03:25:30.854Z,53.20
2019-06-07T03:28:04.772Z,52.50
2019-06-07T03:30:57.223Z,52.60
2019-06-07T03:33:11.088Z,51.93
2019-06-07T03:35:43.356Z,51.74
2019-06-07T03:38:15.628Z,49.93
2019-06-07T03:40:48.001Z,52.02
2019-06-07T03:43:20.371Z,53.54
2019-06-07T03:45:52.744Z,53.46
2019-06-07T03:48:25.215Z,52.34
2019-06-07T03:51:04.629Z,52.66
2019-06-07T03:53:32.763Z,52.94
2019-06-07T03:56:06.075Z,52.97
2019-06-07T03:58:49.250Z,52.53
2019-06-07T04:01:12.198Z,52.97
2019-06-07T04:03:51.612Z,51.44
2019-06-07T04:06:20.755Z,51.89
2019-06-07T04:08:53.303Z,51.61
2019-06-07T04:11:25.681Z,50.97
2019-06-07T04:13:58.052Z,50.29
2019-06-07T04:16:34.924Z,48.83
2019-06-07T04:19:05.870Z,48.36
2019-06-07T04:21:42.591Z,47.82
2019-06-07T04:24:13.477Z,48.62
2019-06-07T04:26:46.822Z,48.66
2019-06-07T04:29:59.639Z,47.74
2019-06-07T04:31:53.055Z,47.26
2019-06-07T04:34:25.530Z,48.19
2019-06-07T04:36:59.606Z,48.19
2019-06-07T04:39:35.830Z,48.01
2019-06-07T04:42:09.714Z,47.19
2019-06-07T04:44:43.204Z,47.18
2019-06-07T04:47:16.594Z,46.01
2019-06-07T04:49:50.103Z,45.61
2019-06-07T04:52:22.263Z,45.37
2019-06-07T04:54:54.832Z,44.35
2019-06-07T04:57:29.999Z,44.25
2019-06-07T05:00:21.271Z,44.81
2019-06-07T05:02:39.798Z,45.87
2019-06-07T05:05:10.791Z,45.16
2019-06-07T05:07:45.945Z,44.56
2019-06-07T05:10:16.753Z,44.32
2019-06-07T05:12:49.132Z,44.57
2019-06-07T05:15:21.905Z,43.39
2019-06-07T05:17:53.968Z,43.58
2019-06-07T05:20:26.444Z,43.52
2019-06-07T05:22:58.711Z,42.90
2019-06-07T05:25:33.267Z,43.88
2019-06-07T05:28:05.309Z,43.72
2019-06-07T05:33:14.109Z,43.77
2019-06-07T05:35:46.309Z,44.01
2019-06-07T05:38:18.677Z,43.72
2019-06-07T05:40:51.054Z,42.39
2019-06-07T05:43:26.101Z,41.49
2019-06-07T05:45:58.664Z,41.21
2019-06-07T05:48:31.821Z,40.57
2019-06-07T05:51:04.427Z,40.43
2019-06-07T05:53:39.015Z,40.94
2019-06-07T05:56:12.053Z,40.32
2019-06-07T05:58:45.640Z,39.71
2019-06-07T06:03:52.548Z,40.27
2019-06-07T06:06:24.737Z,40.86
2019-06-07T06:09:12.869Z,41.54
2019-06-07T06:11:48.150Z,40.64
2019-06-07T06:14:07.905Z,39.83
2019-06-07T06:16:40.413Z,40.53
2019-06-07T06:19:13.893Z,40.89
2019-06-07T06:21:46.561Z,40.39
2019-06-07T06:24:18.984Z,40.06
2019-06-07T06:26:56.982Z,41.02
2019-06-07T06:29:25.281Z,39.44
2019-06-07T06:32:40.379Z,39.60
2019-06-07T06:34:32.362Z,39.62
2019-06-07T06:37:04.949Z,39.93
2019-06-07T06:39:37.416Z,41.55
2019-06-07T06:42:09.991Z,42.33
2019-06-07T06:44:44.456Z,42.28
2019-06-07T06:47:16.351Z,42.75
2019-06-07T06:49:50.122Z,42.42
2019-06-07T06:52:22.760Z,42.87
2019-06-07T06:55:00.967Z,42.96
2019-06-07T06:57:29.238Z,42.99
2019-06-07T07:00:01.516Z,43.45
2019-06-07T07:02:34.104Z,43.07
2019-06-07T07:05:08.203Z,43.98
2019-06-07T07:07:40.799Z,43.33
2019-06-07T07:10:16.424Z,42.84
2019-06-07T07:12:51.227Z,40.96
2019-06-07T07:15:23.016Z,38.93
2019-06-07T07:18:07.884Z,38.92
2019-06-07T07:20:29.599Z,38.81
2019-06-07T07:23:01.973Z,39.08
2019-06-07T07:25:34.245Z,39.34
2019-06-07T07:28:07.232Z,39.25
2019-06-07T07:30:47.291Z,39.86
2019-06-07T07:33:21.497Z,39.21
2019-06-07T07:36:18.493Z,39.34
2019-06-07T07:38:27.880Z,40.40
2019-06-07T07:41:15.303Z,40.71
2019-06-07T07:43:34.359Z,41.45
2019-06-07T07:46:28.404Z,42.03
2019-06-07T07:48:40.541Z,42.59
2019-06-07T07:51:12.911Z,42.21
2019-06-07T07:53:54.285Z,42.38
2019-06-07T07:56:19.906Z,42.32
2019-06-07T07:58:56.224Z,43.21
2019-06-07T08:01:27.723Z,43.50
2019-06-07T08:04:00.609Z,43.94
2019-06-07T08:06:32.980Z,44.22
2019-06-07T08:09:08.053Z,44.47
2019-06-07T08:11:40.186Z,44.25
2019-06-07T08:14:12.660Z,44.14
2019-06-07T08:16:44.822Z,43.35
2019-06-07T08:19:17.660Z,43.27
2019-06-07T08:21:50.654Z,42.02
2019-06-07T08:24:23.207Z,42.25
2019-06-07T08:27:17.835Z,41.05
2019-06-07T08:29:44.358Z,42.04
2019-06-07T08:32:03.048Z,42.07
2019-06-07T08:34:35.318Z,41.71
2019-06-07T08:37:07.791Z,41.44
2019-06-07T08:39:40.365Z,41.75
2019-06-07T08:42:21.191Z,42.10
2019-06-07T08:44:47.369Z,42.32
2019-06-07T08:47:21.232Z,43.03
2019-06-07T08:49:59.536Z,43.30
2019-06-07T08:52:27.757Z,42.88
2019-06-07T08:55:04.741Z,43.50
2019-06-07T08:57:34.575Z,43.61
2019-06-07T09:00:42.473Z,43.77
2019-06-07T09:02:43.439Z,43.60
2019-06-07T09:05:16.477Z,44.17
2019-06-07T09:08:08.119Z,45.03
2019-06-07T09:10:22.860Z,45.31
2019-06-07T09:13:02.982Z,45.77
2019-06-07T09:15:29.140Z,45.34
2019-06-07T09:20:44.493Z,46.35
2019-06-07T09:23:18.825Z,47.13
2019-06-07T09:26:02.614Z,47.27
2019-06-07T09:28:25.345Z,47.08
2019-06-07T09:30:59.771Z,46.83
2019-06-07T09:33:31.715Z,46.54
2019-06-07T09:36:09.218Z,46.96
2019-06-07T09:38:38.203Z,47.48
2019-06-07T09:41:10.675Z,47.60
2019-06-07T09:46:17.367Z,47.80
2019-06-07T09:51:23.639Z,46.97
2019-06-07T09:53:57.917Z,47.36
2019-06-07T09:56:30.227Z,47.66
2019-06-07T09:59:06.150Z,47.95
2019-06-07T10:01:36.921Z,47.93
2019-06-07T10:04:21.917Z,48.11
2019-06-07T10:06:43.618Z,48.17
2019-06-07T10:11:49.992Z,47.88
2019-06-07T10:14:22.685Z,47.95
2019-06-07T10:16:55.254Z,48.36
2019-06-07T10:19:27.415Z,48.24
2019-06-07T10:22:01.212Z,48.44
2019-06-07T10:24:33.799Z,49.26
2019-06-07T10:27:06.175Z,49.35
2019-06-07T10:29:39.771Z,49.86
2019-06-07T10:32:12.239Z,49.55
2019-06-07T10:34:44.722Z,50.14
2019-06-07T10:37:16.986Z,50.78
2019-06-07T10:39:49.490Z,51.06
2019-06-07T10:42:22.754Z,51.23
2019-06-07T10:44:55.026Z,51.82
2019-06-07T10:47:27.397Z,51.67
2019-06-07T10:49:59.773Z,51.29
2019-06-07T10:52:32.193Z,50.70
2019-06-07T10:55:06.862Z,50.56
2019-06-07T10:57:39.137Z,49.63
2019-06-07T11:00:14.221Z,49.14
2019-06-07T11:02:46.791Z,49.01
2019-06-07T11:05:19.229Z,48.59
2019-06-07T11:07:51.731Z,48.35
2019-06-07T11:10:24.169Z,48.18
2019-06-07T11:12:56.542Z,48.38
2019-06-07T11:15:29.103Z,48.64
2019-06-07T11:18:01.388Z,47.98
2019-06-07T11:20:33.758Z,48.25
2019-06-07T11:23:06.699Z,48.25
2019-06-07T11:25:39.322Z,48.69
2019-06-07T11:28:12.542Z,48.62
2019-06-07T11:30:44.782Z,49.44
2019-06-07T11:33:17.052Z,49.28
2019-06-07T11:35:49.115Z,49.31
2019-06-07T11:38:21.487Z,48.81
2019-06-07T11:40:53.860Z,48.68
2019-06-07T11:43:26.333Z,48.43
2019-06-07T11:45:58.702Z,48.14
2019-06-07T11:48:31.084Z,48.75
2019-06-07T11:51:03.566Z,48.37
2019-06-07T11:53:36.281Z,48.77
2019-06-07T11:56:10.325Z,48.21
2019-06-07T11:58:42.712Z,48.30
2019-06-07T12:01:17.145Z,47.43
2019-06-07T12:03:49.504Z,47.26
2019-06-07T12:06:21.773Z,47.28
2019-06-07T12:08:54.255Z,46.32
2019-06-07T12:11:26.729Z,46.69
2019-06-07T12:13:59.816Z,45.56
2019-06-07T12:16:32.185Z,45.44
2019-06-07T12:19:04.663Z,43.63
2019-06-07T12:21:36.934Z,43.76
2019-06-07T12:24:10.336Z,43.70
2019-06-07T12:26:42.598Z,44.17
2019-06-07T12:29:14.966Z,44.22
2019-06-07T12:31:47.137Z,42.92
2019-06-07T12:34:19.592Z,43.45
2019-06-07T12:36:52.083Z,43.64
2019-06-07T12:39:24.456Z,43.25
2019-06-07T12:41:57.035Z,43.62
2019-06-07T12:44:29.325Z,43.88
2019-06-07T12:47:01.570Z,43.86
2019-06-07T12:49:33.850Z,43.59
2019-06-07T12:52:07.545Z,43.71
2019-06-07T12:54:40.097Z,43.40
2019-06-07T12:57:13.696Z,42.98
2019-06-07T12:59:46.192Z,43.65
2019-06-07T13:02:20.036Z,42.66
2019-06-07T13:04:53.087Z,41.81
2019-06-07T13:07:25.366Z,41.82
2019-06-07T13:09:57.728Z,41.92
2019-06-07T13:12:30.206Z,41.50
2019-06-07T13:15:02.384Z,40.97
2019-06-07T13:17:37.307Z,41.99
2019-06-07T13:20:10.769Z,40.75
2019-06-07T13:22:42.969Z,39.04
2019-06-07T13:25:16.290Z,39.03
2019-06-07T13:27:48.433Z,39.46
2019-06-07T13:30:23.023Z,40.49
2019-06-07T13:32:55.526Z,41.29
2019-06-07T13:35:29.594Z,42.00
2019-06-07T13:38:01.608Z,42.41
2019-06-07T13:40:33.980Z,42.87
2019-06-07T13:43:06.349Z,43.36
2019-06-07T13:45:38.517Z,43.10
2019-06-07T13:48:10.873Z,43.69
2019-06-07T13:50:43.259Z,43.95
2019-06-07T13:53:15.824Z,44.20
2019-06-07T13:55:48.100Z,44.73
2019-06-07T13:58:21.264Z,43.07
2019-06-07T14:00:55.002Z,41.87
2019-06-07T14:03:32.717Z,42.32
2019-06-07T14:06:01.723Z,41.79
2019-06-07T14:08:34.369Z,41.44
2019-06-07T14:11:06.739Z,41.61
2019-06-07T14:13:39.214Z,41.10
2019-06-07T14:16:11.828Z,41.59
2019-06-07T14:18:44.367Z,41.91
2019-06-07T14:21:16.837Z,42.27
2019-06-07T14:23:49.586Z,42.51
2019-06-07T14:26:23.102Z,42.73
2019-06-07T14:28:55.387Z,43.05
2019-06-07T14:31:28.138Z,43.35
2019-06-07T14:34:00.364Z,43.29
2019-06-07T14:36:33.313Z,43.76
2019-06-07T14:39:07.649Z,43.76
2019-06-07T14:41:39.812Z,44.37
2019-06-07T14:44:12.287Z,44.56
2019-06-07T14:46:44.863Z,44.09
2019-06-07T14:49:17.331Z,41.61
2019-06-07T14:51:49.724Z,43.30
2019-06-07T14:54:22.718Z,49.37
2019-06-07T14:56:54.965Z,49.19
2019-06-07T14:59:28.338Z,49.36
2019-06-07T15:02:00.836Z,49.16
2019-06-07T15:04:32.998Z,51.53
2019-06-07T15:07:05.682Z,54.42
2019-06-07T15:09:39.311Z,54.75
2019-06-07T15:12:24.149Z,55.01
2019-06-07T15:14:45.457Z,55.86
2019-06-07T15:17:17.731Z,55.82
2019-06-07T15:19:49.994Z,57.10
2019-06-07T15:22:22.263Z,57.41
2019-06-07T15:24:54.841Z,58.11
2019-06-07T15:27:27.323Z,57.00
2019-06-07T15:30:00.402Z,57.00
2019-06-07T15:32:35.187Z,57.66
2019-06-07T15:35:08.749Z,59.46
2019-06-07T15:37:41.111Z,60.32
2019-06-07T15:40:14.202Z,61.95
2019-06-07T15:42:52.706Z,62.56
2019-06-07T15:45:20.491Z,62.74
2019-06-07T15:47:52.947Z,60.94
2019-06-07T15:50:28.641Z,60.26
2019-06-07T15:52:59.844Z,61.46
2019-06-07T15:55:37.172Z,61.89
2019-06-07T15:58:06.965Z,61.34
2019-06-07T16:00:41.054Z,60.81
2019-06-07T16:03:13.729Z,59.40
2019-06-07T16:05:46.002Z,59.42
2019-06-07T16:08:18.373Z,59.06
2019-06-07T16:10:50.640Z,59.19
2019-06-07T16:13:22.910Z,58.24
2019-06-07T16:15:55.281Z,59.24
2019-06-07T16:18:27.864Z,58.93
2019-06-07T16:21:00.230Z,59.49
2019-06-07T16:23:33.653Z,60.39
2019-06-07T16:26:06.207Z,61.53
2019-06-07T16:28:38.784Z,61.93
2019-06-07T16:31:11.263Z,61.27
2019-06-07T16:33:45.202Z,57.05
2019-06-07T16:36:17.747Z,56.73
2019-06-07T16:38:50.120Z,57.73
2019-06-07T16:41:22.484Z,59.31
2019-06-07T16:43:55.774Z,57.47
2019-06-07T16:46:28.254Z,57.56
2019-06-07T16:49:00.632Z,58.86
2019-06-07T16:51:33.116Z,60.12
2019-06-07T16:54:06.133Z,59.75
2019-06-07T16:56:43.365Z,59.13
2019-06-07T16:59:12.362Z,58.42
2019-06-07T17:01:45.334Z,58.34
2019-06-07T17:04:18.825Z,59.16
2019-06-07T17:06:51.016Z,59.29
2019-06-07T17:09:23.626Z,59.01
2019-06-07T17:11:56.274Z,59.65
2019-06-07T17:14:28.642Z,59.29
2019-06-07T17:17:01.118Z,59.48
2019-06-07T17:19:33.591Z,58.46
2019-06-07T17:22:05.861Z,59.23
2019-06-07T17:24:39.138Z,59.96
2019-06-07T17:27:11.631Z,60.07
2019-06-07T17:29:45.722Z,59.84
2019-06-07T17:32:18.022Z,59.86
2019-06-07T17:34:50.691Z,60.59
2019-06-07T17:37:23.265Z,60.26
2019-06-07T17:39:55.537Z,60.65
2019-06-07T17:42:28.120Z,60.93
2019-06-07T17:45:00.696Z,61.16
2019-06-07T17:47:32.960Z,60.36
2019-06-07T17:50:09.326Z,60.86
2019-06-07T17:52:41.829Z,61.34
2019-06-07T17:55:15.389Z,61.47
2019-06-07T17:57:48.517Z,61.80
2019-06-07T18:00:29.498Z,61.80
2019-06-07T18:02:57.836Z,62.30
2019-06-07T18:05:30.316Z,62.38
2019-06-07T18:08:03.714Z,62.53
2019-06-07T18:10:40.098Z,62.40
2019-06-07T18:13:12.348Z,62.76
2019-06-07T18:15:52.315Z,62.59
2019-06-07T18:18:21.404Z,61.97
2019-06-07T18:20:55.502Z,62.02
2019-06-07T18:23:27.986Z,61.67
2019-06-07T18:26:00.143Z,61.47
2019-06-07T18:28:32.314Z,61.57
2019-06-07T18:31:05.411Z,61.66
2019-06-07T18:33:37.673Z,61.35
2019-06-07T18:36:09.738Z,61.09
2019-06-07T18:38:42.312Z,61.22
2019-06-07T18:41:14.886Z,61.56
2019-06-07T18:43:47.466Z,61.45
2019-06-07T18:46:19.731Z,61.14
2019-06-07T18:48:52.619Z,60.97
2019-06-07T18:51:25.093Z,61.15
2019-06-07T18:53:57.922Z,61.30
2019-06-07T18:56:30.254Z,61.14
2019-06-07T18:59:02.825Z,61.86
2019-06-07T19:01:35.095Z,62.04
2019-06-07T19:04:08.246Z,62.42
2019-06-07T19:06:41.275Z,62.80
2019-06-07T19:09:13.862Z,63.27
2019-06-07T19:11:46.731Z,63.47
2019-06-07T19:14:19.410Z,63.45
2019-06-07T19:16:52.319Z,63.75
2019-06-07T19:19:25.700Z,63.84
2019-06-07T19:21:58.389Z,64.04
2019-06-07T19:24:31.168Z,64.23
2019-06-07T19:27:03.621Z,64.12
2019-06-07T19:29:36.234Z,63.90
2019-06-07T19:32:11.334Z,63.55
2019-06-07T19:34:44.014Z,64.16
2019-06-07T19:37:17.001Z,64.34
2019-06-07T19:39:49.680Z,64.85
2019-06-07T19:42:22.358Z,65.24
2019-06-07T19:45:00.838Z,65.54
2019-06-07T19:47:31.619Z,65.65
2019-06-07T19:50:05.926Z,65.75
2019-06-07T19:52:38.510Z,65.88
2019-06-07T19:55:11.524Z,65.79
2019-06-07T19:57:43.868Z,65.70
2019-06-07T20:00:16.545Z,65.24
2019-06-07T20:02:49.243Z,65.19
2019-06-07T20:05:21.896Z,65.17
2019-06-07T20:07:54.547Z,65.20
2019-06-07T20:10:26.948Z,65.18
2019-06-07T20:12:59.520Z,65.55
2019-06-07T20:15:33.030Z,64.85
2019-06-07T20:18:05.719Z,64.06
2019-06-07T20:20:37.984Z,64.09
2019-06-07T20:23:10.498Z,63.37
2019-06-07T20:25:43.133Z,63.06
2019-06-07T20:28:15.599Z,62.60
2019-06-07T20:30:48.087Z,62.67
2019-06-07T20:33:20.553Z,62.92
2019-06-07T20:35:52.819Z,62.19
2019-06-07T20:38:25.301Z,62.16
2019-06-07T20:40:57.667Z,62.89
2019-06-07T20:43:30.245Z,63.82
2019-06-07T20:46:05.055Z,63.87
2019-06-07T20:48:37.351Z,64.48
2019-06-07T20:51:09.919Z,63.48
2019-06-07T20:53:42.596Z,63.04
2019-06-07T20:56:14.970Z,63.01
2019-06-07T20:58:47.242Z,62.37
2019-06-07T21:01:19.717Z,62.75
2019-06-07T21:03:52.324Z,62.17
2019-06-07T21:06:24.971Z,61.59
2019-06-07T21:08:57.342Z,61.20
2019-06-07T21:11:29.623Z,61.05
2019-06-07T21:14:02.053Z,60.93
2019-06-07T21:16:34.256Z,60.81
2019-06-07T21:19:06.726Z,60.95
2019-06-07T21:21:39.011Z,61.80
2019-06-07T21:24:12.186Z,62.49
2019-06-07T21:26:44.559Z,61.37
2019-06-07T21:29:17.033Z,62.80
2019-06-07T21:31:49.510Z,63.02
2019-06-07T21:34:21.982Z,63.57
2019-06-07T21:36:54.561Z,63.20
2019-06-07T21:39:27.035Z,64.10
2019-06-07T21:41:59.205Z,64.63
2019-06-07T21:44:31.778Z,64.60
2019-06-07T21:47:04.287Z,65.21
2019-06-07T21:49:36.728Z,64.89
2019-06-07T21:52:09.100Z,65.06
2019-06-07T21:54:41.688Z,65.51
2019-06-07T21:57:13.849Z,65.70
2019-06-07T21:59:46.213Z,65.36
2019-06-07T22:02:18.791Z,65.29
2019-06-07T22:04:50.960Z,66.11
2019-06-07T22:07:23.330Z,65.78
2019-06-07T22:09:55.705Z,65.68
2019-06-07T22:12:28.175Z,65.07
2019-06-07T22:15:00.548Z,65.11
2019-06-07T22:17:32.931Z,65.06
2019-06-07T22:20:08.807Z,65.08
2019-06-07T22:22:41.966Z,64.59
2019-06-07T22:25:15.149Z,65.16
2019-06-07T22:27:47.422Z,65.57
2019-06-07T22:30:20.234Z,66.42
2019-06-07T22:32:52.379Z,66.44
2019-06-07T22:35:24.739Z,66.45
2019-06-07T22:37:57.115Z,66.56
2019-06-07T22:40:30.800Z,66.53
2019-06-07T22:43:03.084Z,66.80
2019-06-07T22:45:35.564Z,67.79
2019-06-07T22:48:08.898Z,67.71
2019-06-07T22:50:41.124Z,68.29
2019-06-07T22:53:13.937Z,68.29
2019-06-07T22:55:48.836Z,68.58
2019-06-07T22:58:21.208Z,67.49
2019-06-07T23:00:53.580Z,67.33
2019-06-07T23:03:26.158Z,67.30
2019-06-07T23:05:58.417Z,66.71
2019-06-07T23:08:31.107Z,66.66
2019-06-07T23:11:03.381Z,66.78
2019-06-07T23:13:35.642Z,66.52
2019-06-07T23:16:09.386Z,66.60
2019-06-07T23:18:41.619Z,66.68
2019-06-07T23:21:13.989Z,66.99
2019-06-07T23:23:46.466Z,66.81
2019-06-07T23:26:18.835Z,66.61
2019-06-07T23:28:51.315Z,66.37
2019-06-07T23:31:23.785Z,66.55
2019-06-07T23:33:56.362Z,66.82
2019-06-07T23:36:28.729Z,67.11
2019-06-07T23:39:01.105Z,66.69
2019-06-07T23:41:34.401Z,67.62
2019-06-07T23:44:06.973Z,68.29
2019-06-07T23:46:40.575Z,68.70
2019-06-07T23:49:14.035Z,69.50
2019-06-07T23:51:46.293Z,69.40
2019-06-07T23:54:19.822Z,70.14
2019-06-07T23:56:52.431Z,70.21
2019-06-07T23:59:24.685Z,69.97
